Drake Field Fayetteville US
ICAO: KFYV
IATA: FYV
Category: Medium
Scheduled Services: No

Elevation: 1251 ft
TransAlt. 18000 ft.

Airport Communications:
RAZORBACK APP/DEP:121
ATIS:133.1
CTAF:128
GND:121.8
JONESBORO RDO:122.3
TWR:128
UNICOM:122.95

KFYV Zoom In..

Runways:

(A) RW 16 length 6005 ft width 100 ft
LOC 111.90 / hdg 164

(B) RW 34 length 6005 ft width 100 ft
LOC 111.90 / hdg 344

Location; KFYV
Day. 05 / Time. 17.53 Zulu
* Altimeter: 29.98
* Temperature: 32° c. 89.6°f.
* Wind from: 000° Speed 00 kn.
Dewpoint: 21° c.
Visibility: 10 Statute Miles.
Clouds: Clear (automated report).

KFYV 051753Z 00000KT 10SM CLR 32/21 A2998 RMK AO2 SLP133 T03220211 10322 20228 58003


Wind - Calm.

 
 
jpsmedia worldairports.se 2020   terms of use